Terminal Aerodrome Forecast
Issued by NWS

Current Version | Previous Version | Text Only | Print | Product List | Glossary Off
Versions: 1 2 3 4 5 6 7 8 9 10 11 12 13 14

000
FTUS41 KILN 171503 AAA
TAFLCK
TAF AMD
KLCK 171503Z 1715/1812 26012G18KT P6SM BKN020 OVC030
     FM171600 28016G26KT P6SM OVC035
     FM172200 29013KT P6SM BKN035
     FM180200 30008KT P6SM SCT040
     FM180500 VRB04KT P6SM SCT250=

USA.gov is the U.S. government's official web portal to all federal, state and local government web resources and services.